Archival Weather

Chicago O'Hare International

Chicago, Illinois (KORD)

Report from: Thursday, June 23, 2022 10:51 PM CDT
Current time: Tuesday, August 16, 2022 2:44 AM CDT

Current weather
Weather history
Weather forecast

Temperature21.7°C (71.1°F)
Dew point8.9°C (48.0°F)
Winds 3 kts (1.5 m/s, 3.5 mph) South-Southeast (160°)
Visibility10 mi. (16.1 km)
Clouds Few clouds 25,000 ft. (7,620 m)
Altimeter30.00 in.Hg (1016 mB)
Relative humidity44 %
Density altitude855 ft. (261 m)
Sea-level pressure101.5 kPa (1015 mB, 29.98 in.Hg)
Remarks Automated weather observing station with precipitation discriminator
Flight conditions Visual Meteorological Conditions
Raw dataKORD 240351Z 16003KT 10SM FEW250 22/09 A3000 RMK AO2 SLP154 T02170089
An error has occurred. This application may no longer respond until reloaded. Reload 🗙